sensor_id;sensor_type;location;lat;lon;timestamp;temperature;humidity
14755;DHT22;7469;50.906;6.952;2023-05-28T00:00:36;14.00;99.90
14755;DHT22;7469;50.906;6.952;2023-05-28T00:03:04;13.90;99.90
14755;DHT22;7469;50.906;6.952;2023-05-28T00:05:33;13.90;99.90
14755;DHT22;7469;50.906;6.952;2023-05-28T00:08:01;13.80;99.90
14755;DHT22;7469;50.906;6.952;2023-05-28T00:10:29;13.80;99.90
14755;DHT22;7469;50.906;6.952;2023-05-28T00:12:58;13.70;99.90
14755;DHT22;7469;50.906;6.952;2023-05-28T00:15:26;13.70;99.90
14755;DHT22;7469;50.906;6.952;2023-05-28T00:17:55;13.60;99.90
14755;DHT22;7469;50.906;6.952;2023-05-28T00:20:24;13.50;99.90
14755;DHT22;7469;50.906;6.952;2023-05-28T00:22:52;13.40;99.90
14755;DHT22;7469;50.906;6.952;2023-05-28T00:25:22;13.40;99.90
14755;DHT22;7469;50.906;6.952;2023-05-28T00:27:50;13.30;99.90
14755;DHT22;7469;50.906;6.952;2023-05-28T00:30:20;13.30;99.90
14755;DHT22;7469;50.906;6.952;2023-05-28T00:32:50;13.30;99.90
14755;DHT22;7469;50.906;6.952;2023-05-28T00:35:18;13.30;99.90
14755;DHT22;7469;50.906;6.952;2023-05-28T00:37:46;13.20;99.90
14755;DHT22;7469;50.906;6.952;2023-05-28T00:40:14;13.20;99.90
14755;DHT22;7469;50.906;6.952;2023-05-28T00:42:44;13.20;99.90
14755;DHT22;7469;50.906;6.952;2023-05-28T00:45:12;13.10;99.90
14755;DHT22;7469;50.906;6.952;2023-05-28T00:47:42;13.10;99.90
14755;DHT22;7469;50.906;6.952;2023-05-28T00:50:11;13.10;99.90
14755;DHT22;7469;50.906;6.952;2023-05-28T00:52:46;13.10;99.90
14755;DHT22;7469;50.906;6.952;2023-05-28T00:55:15;13.10;99.90
14755;DHT22;7469;50.906;6.952;2023-05-28T00:57:46;13.10;99.90
14755;DHT22;7469;50.906;6.952;2023-05-28T01:00:15;13.00;99.90
14755;DHT22;7469;50.906;6.952;2023-05-28T01:02:45;13.00;99.90
14755;DHT22;7469;50.906;6.952;2023-05-28T01:05:13;13.00;99.90
14755;DHT22;7469;50.906;6.952;2023-05-28T01:07:42;13.00;99.90
14755;DHT22;7469;50.906;6.952;2023-05-28T01:10:10;13.00;99.90
14755;DHT22;7469;50.906;6.952;2023-05-28T01:12:38;13.00;99.90
14755;DHT22;7469;50.906;6.952;2023-05-28T01:15:08;13.00;99.90
14755;DHT22;7469;50.906;6.952;2023-05-28T01:17:38;13.00;99.90
14755;DHT22;7469;50.906;6.952;2023-05-28T01:20:08;12.90;99.90
14755;DHT22;7469;50.906;6.952;2023-05-28T01:22:47;12.90;99.90
14755;DHT22;7469;50.906;6.952;2023-05-28T01:25:21;12.90;99.90
14755;DHT22;7469;50.906;6.952;2023-05-28T01:27:50;12.80;99.90
14755;DHT22;7469;50.906;6.952;2023-05-28T01:30:18;12.80;99.90
14755;DHT22;7469;50.906;6.952;2023-05-28T01:32:46;12.80;99.90
14755;DHT22;7469;50.906;6.952;2023-05-28T01:35:14;12.80;99.90
14755;DHT22;7469;50.906;6.952;2023-05-28T01:37:46;12.70;99.90
14755;DHT22;7469;50.906;6.952;2023-05-28T01:40:15;12.70;99.90
14755;DHT22;7469;50.906;6.952;2023-05-28T01:42:46;12.70;99.90
14755;DHT22;7469;50.906;6.952;2023-05-28T01:45:15;12.60;99.90
14755;DHT22;7469;50.906;6.952;2023-05-28T01:47:43;12.60;99.90
14755;DHT22;7469;50.906;6.952;2023-05-28T01:50:12;12.50;99.90
14755;DHT22;7469;50.906;6.952;2023-05-28T01:52:40;12.40;99.90
14755;DHT22;7469;50.906;6.952;2023-05-28T01:55:08;12.30;99.90
14755;DHT22;7469;50.906;6.952;2023-05-28T01:57:38;12.20;99.90
14755;DHT22;7469;50.906;6.952;2023-05-28T02:00:10;12.20;99.90
14755;DHT22;7469;50.906;6.952;2023-05-28T02:02:38;12.20;99.90
14755;DHT22;7469;50.906;6.952;2023-05-28T02:05:06;12.20;99.90
14755;DHT22;7469;50.906;6.952;2023-05-28T02:07:35;12.20;99.90
14755;DHT22;7469;50.906;6.952;2023-05-28T02:10:03;12.20;99.90
14755;DHT22;7469;50.906;6.952;2023-05-28T02:12:32;12.20;99.90
14755;DHT22;7469;50.906;6.952;2023-05-28T02:15:00;12.20;99.90
14755;DHT22;7469;50.906;6.952;2023-05-28T02:17:29;12.20;99.90
14755;DHT22;7469;50.906;6.952;2023-05-28T02:19:57;12.20;99.90
14755;DHT22;7469;50.906;6.952;2023-05-28T02:22:25;12.10;99.90
14755;DHT22;7469;50.906;6.952;2023-05-28T02:24:53;12.10;99.90
14755;DHT22;7469;50.906;6.952;2023-05-28T02:27:24;12.10;99.90
14755;DHT22;7469;50.906;6.952;2023-05-28T02:29:51;12.00;99.90
14755;DHT22;7469;50.906;6.952;2023-05-28T02:32:19;12.00;99.90
14755;DHT22;7469;50.906;6.952;2023-05-28T02:34:49;12.00;99.90
14755;DHT22;7469;50.906;6.952;2023-05-28T02:37:17;11.90;99.90
14755;DHT22;7469;50.906;6.952;2023-05-28T02:39:45;11.90;99.90
14755;DHT22;7469;50.906;6.952;2023-05-28T02:42:13;11.80;99.90
14755;DHT22;7469;50.906;6.952;2023-05-28T02:44:41;11.80;99.90
14755;DHT22;7469;50.906;6.952;2023-05-28T02:47:08;11.80;99.90
14755;DHT22;7469;50.906;6.952;2023-05-28T02:49:36;11.70;99.90
14755;DHT22;7469;50.906;6.952;2023-05-28T02:52:06;11.70;99.90
14755;DHT22;7469;50.906;6.952;2023-05-28T02:54:34;11.70;99.90
14755;DHT22;7469;50.906;6.952;2023-05-28T02:57:02;11.60;99.90
14755;DHT22;7469;50.906;6.952;2023-05-28T02:59:30;11.60;99.90
14755;DHT22;7469;50.906;6.952;2023-05-28T03:01:58;11.60;99.90
14755;DHT22;7469;50.906;6.952;2023-05-28T03:04:26;11.50;99.90
14755;DHT22;7469;50.906;6.952;2023-05-28T03:06:54;11.50;99.90
14755;DHT22;7469;50.906;6.952;2023-05-28T03:09:24;11.50;99.90
14755;DHT22;7469;50.906;6.952;2023-05-28T03:11:52;11.50;99.90
14755;DHT22;7469;50.906;6.952;2023-05-28T03:14:20;11.50;99.90
14755;DHT22;7469;50.906;6.952;2023-05-28T03:16:47;11.50;99.90
14755;DHT22;7469;50.906;6.952;2023-05-28T03:19:15;11.50;99.90
14755;DHT22;7469;50.906;6.952;2023-05-28T03:21:43;11.50;99.90
14755;DHT22;7469;50.906;6.952;2023-05-28T03:24:11;11.40;99.90
14755;DHT22;7469;50.906;6.952;2023-05-28T03:26:41;11.40;99.90
14755;DHT22;7469;50.906;6.952;2023-05-28T03:29:08;11.50;99.90
14755;DHT22;7469;50.906;6.952;2023-05-28T03:31:43;11.40;99.90
14755;DHT22;7469;50.906;6.952;2023-05-28T03:34:11;11.40;99.90
14755;DHT22;7469;50.906;6.952;2023-05-28T03:36:40;11.40;99.90
14755;DHT22;7469;50.906;6.952;2023-05-28T03:39:08;11.30;99.90
14755;DHT22;7469;50.906;6.952;2023-05-28T03:41:36;11.20;99.90
14755;DHT22;7469;50.906;6.952;2023-05-28T03:44:05;11.20;99.90
14755;DHT22;7469;50.906;6.952;2023-05-28T03:46:33;11.20;99.90
14755;DHT22;7469;50.906;6.952;2023-05-28T03:49:01;11.20;99.90
14755;DHT22;7469;50.906;6.952;2023-05-28T03:51:30;11.20;99.90
14755;DHT22;7469;50.906;6.952;2023-05-28T03:53:58;11.20;99.90
14755;DHT22;7469;50.906;6.952;2023-05-28T03:56:27;11.20;99.90
14755;DHT22;7469;50.906;6.952;2023-05-28T03:58:56;11.20;99.90
14755;DHT22;7469;50.906;6.952;2023-05-28T04:01:26;11.20;99.90
14755;DHT22;7469;50.906;6.952;2023-05-28T04:03:54;11.20;99.90
14755;DHT22;7469;50.906;6.952;2023-05-28T04:06:23;11.20;99.90
14755;DHT22;7469;50.906;6.952;2023-05-28T04:08:51;11.20;99.90
14755;DHT22;7469;50.906;6.952;2023-05-28T04:11:20;11.30;99.90
14755;DHT22;7469;50.906;6.952;2023-05-28T04:13:51;11.30;99.90
14755;DHT22;7469;50.906;6.952;2023-05-28T04:16:20;11.40;99.90
14755;DHT22;7469;50.906;6.952;2023-05-28T04:18:51;11.40;99.90
14755;DHT22;7469;50.906;6.952;2023-05-28T04:21:21;11.50;99.90
14755;DHT22;7469;50.906;6.952;2023-05-28T04:23:49;11.50;99.90
14755;DHT22;7469;50.906;6.952;2023-05-28T04:26:18;11.60;99.90
14755;DHT22;7469;50.906;6.952;2023-05-28T04:28:49;11.60;99.90
14755;DHT22;7469;50.906;6.952;2023-05-28T04:31:17;11.70;99.90
14755;DHT22;7469;50.906;6.952;2023-05-28T04:33:45;11.70;99.90
14755;DHT22;7469;50.906;6.952;2023-05-28T04:36:15;11.70;99.90
14755;DHT22;7469;50.906;6.952;2023-05-28T04:38:43;11.80;99.90
14755;DHT22;7469;50.906;6.952;2023-05-28T04:41:12;11.80;99.90
14755;DHT22;7469;50.906;6.952;2023-05-28T04:43:41;11.80;99.90
14755;DHT22;7469;50.906;6.952;2023-05-28T04:46:09;11.90;99.90
14755;DHT22;7469;50.906;6.952;2023-05-28T04:48:38;11.90;99.90
14755;DHT22;7469;50.906;6.952;2023-05-28T04:51:06;11.90;99.90
14755;DHT22;7469;50.906;6.952;2023-05-28T04:53:38;12.00;99.90
14755;DHT22;7469;50.906;6.952;2023-05-28T04:56:06;12.00;99.90
14755;DHT22;7469;50.906;6.952;2023-05-28T04:58:34;12.10;99.90
14755;DHT22;7469;50.906;6.952;2023-05-28T05:01:02;12.10;99.90
14755;DHT22;7469;50.906;6.952;2023-05-28T05:03:31;12.20;99.90
14755;DHT22;7469;50.906;6.952;2023-05-28T05:05:59;12.30;99.90
14755;DHT22;7469;50.906;6.952;2023-05-28T05:08:27;12.40;99.90
14755;DHT22;7469;50.906;6.952;2023-05-28T05:10:57;12.50;99.90
14755;DHT22;7469;50.906;6.952;2023-05-28T05:13:27;12.60;99.90
14755;DHT22;7469;50.906;6.952;2023-05-28T05:15:55;12.70;99.90
14755;DHT22;7469;50.906;6.952;2023-05-28T05:18:23;12.80;99.90
14755;DHT22;7469;50.906;6.952;2023-05-28T05:20:51;12.90;99.90
14755;DHT22;7469;50.906;6.952;2023-05-28T05:23:20;13.00;99.90
14755;DHT22;7469;50.906;6.952;2023-05-28T05:25:47;13.00;99.90
14755;DHT22;7469;50.906;6.952;2023-05-28T05:28:17;13.10;99.90
14755;DHT22;7469;50.906;6.952;2023-05-28T05:30:45;13.10;99.90
14755;DHT22;7469;50.906;6.952;2023-05-28T05:33:12;13.20;99.90
14755;DHT22;7469;50.906;6.952;2023-05-28T05:35:40;13.30;99.90
14755;DHT22;7469;50.906;6.952;2023-05-28T05:38:08;13.40;99.90
14755;DHT22;7469;50.906;6.952;2023-05-28T05:40:37;13.50;99.90
14755;DHT22;7469;50.906;6.952;2023-05-28T05:43:05;13.60;99.90
14755;DHT22;7469;50.906;6.952;2023-05-28T05:45:35;13.70;99.90
14755;DHT22;7469;50.906;6.952;2023-05-28T05:48:03;13.80;99.90
14755;DHT22;7469;50.906;6.952;2023-05-28T05:50:32;14.00;99.90
14755;DHT22;7469;50.906;6.952;2023-05-28T05:53:00;14.10;99.90
14755;DHT22;7469;50.906;6.952;2023-05-28T05:55:29;14.10;99.90
14755;DHT22;7469;50.906;6.952;2023-05-28T05:57:57;14.20;99.90
14755;DHT22;7469;50.906;6.952;2023-05-28T06:00:26;14.30;99.90
14755;DHT22;7469;50.906;6.952;2023-05-28T06:02:55;14.40;99.90
14755;DHT22;7469;50.906;6.952;2023-05-28T06:05:23;14.50;99.90
14755;DHT22;7469;50.906;6.952;2023-05-28T06:07:51;14.70;99.90
14755;DHT22;7469;50.906;6.952;2023-05-28T06:10:20;14.80;99.90
14755;DHT22;7469;50.906;6.952;2023-05-28T06:12:48;14.90;99.90
14755;DHT22;7469;50.906;6.952;2023-05-28T06:15:16;15.10;99.90
14755;DHT22;7469;50.906;6.952;2023-05-28T06:17:44;15.20;99.90
14755;DHT22;7469;50.906;6.952;2023-05-28T06:20:13;15.30;99.90
14755;DHT22;7469;50.906;6.952;2023-05-28T06:22:41;15.40;99.90
14755;DHT22;7469;50.906;6.952;2023-05-28T06:25:09;15.50;99.90
14755;DHT22;7469;50.906;6.952;2023-05-28T06:27:38;15.50;99.90
14755;DHT22;7469;50.906;6.952;2023-05-28T06:30:07;15.60;99.90
14755;DHT22;7469;50.906;6.952;2023-05-28T06:32:35;15.70;99.90
14755;DHT22;7469;50.906;6.952;2023-05-28T06:35:03;15.80;99.90
14755;DHT22;7469;50.906;6.952;2023-05-28T06:37:33;16.00;99.90
14755;DHT22;7469;50.906;6.952;2023-05-28T06:40:01;16.10;99.90
14755;DHT22;7469;50.906;6.952;2023-05-28T06:42:32;16.20;99.90
14755;DHT22;7469;50.906;6.952;2023-05-28T06:45:00;16.30;99.90
14755;DHT22;7469;50.906;6.952;2023-05-28T06:47:28;16.50;99.90
14755;DHT22;7469;50.906;6.952;2023-05-28T06:49:56;16.60;99.90
14755;DHT22;7469;50.906;6.952;2023-05-28T06:52:24;16.70;99.90
14755;DHT22;7469;50.906;6.952;2023-05-28T06:54:55;16.80;99.90
14755;DHT22;7469;50.906;6.952;2023-05-28T06:57:23;16.90;99.90
14755;DHT22;7469;50.906;6.952;2023-05-28T06:59:51;16.90;99.90
14755;DHT22;7469;50.906;6.952;2023-05-28T07:02:19;16.90;99.90
14755;DHT22;7469;50.906;6.952;2023-05-28T07:04:47;17.00;99.90
14755;DHT22;7469;50.906;6.952;2023-05-28T07:07:15;17.10;99.90
14755;DHT22;7469;50.906;6.952;2023-05-28T07:09:43;17.20;99.90
14755;DHT22;7469;50.906;6.952;2023-05-28T07:12:15;17.20;99.90
14755;DHT22;7469;50.906;6.952;2023-05-28T07:14:43;17.40;99.90
14755;DHT22;7469;50.906;6.952;2023-05-28T07:17:11;17.50;99.90
14755;DHT22;7469;50.906;6.952;2023-05-28T07:19:39;17.50;99.90
14755;DHT22;7469;50.906;6.952;2023-05-28T07:22:07;17.50;99.90
14755;DHT22;7469;50.906;6.952;2023-05-28T07:24:35;17.50;99.90
14755;DHT22;7469;50.906;6.952;2023-05-28T07:27:03;17.60;99.90
14755;DHT22;7469;50.906;6.952;2023-05-28T07:29:34;17.70;99.90
14755;DHT22;7469;50.906;6.952;2023-05-28T07:32:02;17.90;99.90
14755;DHT22;7469;50.906;6.952;2023-05-28T07:34:30;18.00;99.90
14755;DHT22;7469;50.906;6.952;2023-05-28T07:36:58;18.10;99.90
14755;DHT22;7469;50.906;6.952;2023-05-28T07:39:26;18.20;99.90
14755;DHT22;7469;50.906;6.952;2023-05-28T07:41:54;18.30;99.90
14755;DHT22;7469;50.906;6.952;2023-05-28T07:44:22;18.40;99.90
14755;DHT22;7469;50.906;6.952;2023-05-28T07:46:51;18.60;99.50
14755;DHT22;7469;50.906;6.952;2023-05-28T07:49:19;18.70;99.10
14755;DHT22;7469;50.906;6.952;2023-05-28T07:51:47;18.70;98.20
14755;DHT22;7469;50.906;6.952;2023-05-28T07:54:15;18.80;97.90
14755;DHT22;7469;50.906;6.952;2023-05-28T07:56:43;18.90;97.90
14755;DHT22;7469;50.906;6.952;2023-05-28T07:59:11;19.10;97.50
14755;DHT22;7469;50.906;6.952;2023-05-28T08:01:39;19.20;96.80
14755;DHT22;7469;50.906;6.952;2023-05-28T08:04:09;19.20;95.90
14755;DHT22;7469;50.906;6.952;2023-05-28T08:06:37;19.30;95.70
14755;DHT22;7469;50.906;6.952;2023-05-28T08:09:05;19.30;95.50
14755;DHT22;7469;50.906;6.952;2023-05-28T08:11:33;19.50;95.50
14755;DHT22;7469;50.906;6.952;2023-05-28T08:14:01;19.70;94.90
14755;DHT22;7469;50.906;6.952;2023-05-28T08:16:29;19.90;94.20
14755;DHT22;7469;50.906;6.952;2023-05-28T08:18:58;20.00;93.70
14755;DHT22;7469;50.906;6.952;2023-05-28T08:21:27;20.20;93.60
14755;DHT22;7469;50.906;6.952;2023-05-28T08:23:55;20.30;93.20
14755;DHT22;7469;50.906;6.952;2023-05-28T08:26:23;20.50;93.00
14755;DHT22;7469;50.906;6.952;2023-05-28T08:28:52;20.70;92.30
14755;DHT22;7469;50.906;6.952;2023-05-28T08:31:20;20.90;92.00
14755;DHT22;7469;50.906;6.952;2023-05-28T08:33:48;21.00;91.20
14755;DHT22;7469;50.906;6.952;2023-05-28T08:36:16;21.00;90.10
14755;DHT22;7469;50.906;6.952;2023-05-28T08:38:46;21.00;87.20
14755;DHT22;7469;50.906;6.952;2023-05-28T08:41:14;21.20;85.70
14755;DHT22;7469;50.906;6.952;2023-05-28T08:43:42;21.50;82.30
14755;DHT22;7469;50.906;6.952;2023-05-28T08:46:10;21.90;80.00
14755;DHT22;7469;50.906;6.952;2023-05-28T08:48:41;22.40;74.70
14755;DHT22;7469;50.906;6.952;2023-05-28T08:51:09;22.90;70.00
14755;DHT22;7469;50.906;6.952;2023-05-28T08:53:40;23.60;66.70
14755;DHT22;7469;50.906;6.952;2023-05-28T08:56:12;24.30;61.60
14755;DHT22;7469;50.906;6.952;2023-05-28T08:58:40;24.80;56.50
14755;DHT22;7469;50.906;6.952;2023-05-28T09:01:09;25.40;51.20
14755;DHT22;7469;50.906;6.952;2023-05-28T09:03:38;25.70;46.40
14755;DHT22;7469;50.906;6.952;2023-05-28T09:06:08;26.40;41.10
14755;DHT22;7469;50.906;6.952;2023-05-28T09:08:36;27.80;37.20
14755;DHT22;7469;50.906;6.952;2023-05-28T09:11:13;29.80;31.90
14755;DHT22;7469;50.906;6.952;2023-05-28T09:13:43;30.60;25.40
14755;DHT22;7469;50.906;6.952;2023-05-28T09:16:11;31.70;23.40
14755;DHT22;7469;50.906;6.952;2023-05-28T09:18:43;33.20;19.60
14755;DHT22;7469;50.906;6.952;2023-05-28T09:21:10;34.10;16.90
14755;DHT22;7469;50.906;6.952;2023-05-28T09:23:39;35.40;14.40
14755;DHT22;7469;50.906;6.952;2023-05-28T09:26:08;35.40;11.40
14755;DHT22;7469;50.906;6.952;2023-05-28T09:28:41;35.40;11.10
14755;DHT22;7469;50.906;6.952;2023-05-28T09:31:10;36.00;10.20
14755;DHT22;7469;50.906;6.952;2023-05-28T09:33:41;35.70;9.30
14755;DHT22;7469;50.906;6.952;2023-05-28T09:36:10;36.10;8.90
14755;DHT22;7469;50.906;6.952;2023-05-28T09:38:38;36.50;8.10
14755;DHT22;7469;50.906;6.952;2023-05-28T09:41:17;36.70;7.20
14755;DHT22;7469;50.906;6.952;2023-05-28T09:43:56;36.10;7.70
14755;DHT22;7469;50.906;6.952;2023-05-28T09:46:29;35.70;8.20
14755;DHT22;7469;50.906;6.952;2023-05-28T09:48:58;36.30;7.50
14755;DHT22;7469;50.906;6.952;2023-05-28T09:51:27;37.00;6.40
14755;DHT22;7469;50.906;6.952;2023-05-28T09:53:58;37.20;6.50
14755;DHT22;7469;50.906;6.952;2023-05-28T09:56:27;38.10;5.70
14755;DHT22;7469;50.906;6.952;2023-05-28T09:59:06;38.30;5.30
14755;DHT22;7469;50.906;6.952;2023-05-28T10:01:38;39.10;4.20
14755;DHT22;7469;50.906;6.952;2023-05-28T10:04:09;38.40;3.70
14755;DHT22;7469;50.906;6.952;2023-05-28T10:06:38;37.40;3.90
14755;DHT22;7469;50.906;6.952;2023-05-28T10:09:08;36.80;4.50
14755;DHT22;7469;50.906;6.952;2023-05-28T10:11:42;37.50;4.50
14755;DHT22;7469;50.906;6.952;2023-05-28T10:14:12;38.60;3.90
14755;DHT22;7469;50.906;6.952;2023-05-28T10:16:40;39.60;3.30
14755;DHT22;7469;50.906;6.952;2023-05-28T10:19:09;40.40;2.30
14755;DHT22;7469;50.906;6.952;2023-05-28T10:21:37;40.60;1.60
14755;DHT22;7469;50.906;6.952;2023-05-28T10:24:06;41.00;1.10
14755;DHT22;7469;50.906;6.952;2023-05-28T10:26:34;40.50;1.10
14755;DHT22;7469;50.906;6.952;2023-05-28T10:29:06;39.40;1.20
14755;DHT22;7469;50.906;6.952;2023-05-28T10:31:35;39.20;1.60
14755;DHT22;7469;50.906;6.952;2023-05-28T10:34:14;39.10;1.60
14755;DHT22;7469;50.906;6.952;2023-05-28T10:36:49;39.60;1.60
14755;DHT22;7469;50.906;6.952;2023-05-28T10:39:37;40.50;1.10
14755;DHT22;7469;50.906;6.952;2023-05-28T10:42:06;41.10;1.00
14755;DHT22;7469;50.906;6.952;2023-05-28T10:44:49;41.80;1.00
14755;DHT22;7469;50.906;6.952;2023-05-28T10:47:19;41.90;1.00
14755;DHT22;7469;50.906;6.952;2023-05-28T10:49:58;41.80;1.00
14755;DHT22;7469;50.906;6.952;2023-05-28T10:52:42;41.80;1.00
14755;DHT22;7469;50.906;6.952;2023-05-28T10:55:11;41.10;1.00
14755;DHT22;7469;50.906;6.952;2023-05-28T10:57:42;40.40;1.00
14755;DHT22;7469;50.906;6.952;2023-05-28T11:00:11;39.90;1.00
14755;DHT22;7469;50.906;6.952;2023-05-28T11:02:43;39.60;1.00
14755;DHT22;7469;50.906;6.952;2023-05-28T11:05:13;39.20;1.00
14755;DHT22;7469;50.906;6.952;2023-05-28T11:07:42;38.10;1.00
14755;DHT22;7469;50.906;6.952;2023-05-28T11:10:11;37.00;1.00
14755;DHT22;7469;50.906;6.952;2023-05-28T11:12:40;36.20;1.00
14755;DHT22;7469;50.906;6.952;2023-05-28T11:15:10;35.60;1.00
14755;DHT22;7469;50.906;6.952;2023-05-28T11:17:40;34.70;1.70
14755;DHT22;7469;50.906;6.952;2023-05-28T11:20:17;34.20;2.50
14755;DHT22;7469;50.906;6.952;2023-05-28T11:22:45;33.80;3.10
14755;DHT22;7469;50.906;6.952;2023-05-28T11:25:13;33.40;2.70
14755;DHT22;7469;50.906;6.952;2023-05-28T11:27:41;32.50;2.90
14755;DHT22;7469;50.906;6.952;2023-05-28T11:30:13;31.70;4.00
14755;DHT22;7469;50.906;6.952;2023-05-28T11:32:42;31.10;4.30
14755;DHT22;7469;50.906;6.952;2023-05-28T11:35:11;30.40;4.80
14755;DHT22;7469;50.906;6.952;2023-05-28T11:37:42;29.90;4.70
14755;DHT22;7469;50.906;6.952;2023-05-28T11:40:12;29.50;5.40
14755;DHT22;7469;50.906;6.952;2023-05-28T11:42:42;29.20;6.10
14755;DHT22;7469;50.906;6.952;2023-05-28T11:45:11;29.00;6.70
14755;DHT22;7469;50.906;6.952;2023-05-28T11:47:40;28.80;6.80
14755;DHT22;7469;50.906;6.952;2023-05-28T11:50:11;28.50;6.90
14755;DHT22;7469;50.906;6.952;2023-05-28T11:52:41;28.30;7.00
14755;DHT22;7469;50.906;6.952;2023-05-28T11:55:09;27.80;7.20
14755;DHT22;7469;50.906;6.952;2023-05-28T11:57:37;27.40;8.30
14755;DHT22;7469;50.906;6.952;2023-05-28T12:00:07;27.30;9.60
14755;DHT22;7469;50.906;6.952;2023-05-28T12:02:42;27.30;9.40
14755;DHT22;7469;50.906;6.952;2023-05-28T12:05:12;27.30;9.20
14755;DHT22;7469;50.906;6.952;2023-05-28T12:07:46;27.10;9.00
14755;DHT22;7469;50.906;6.952;2023-05-28T12:10:15;26.80;9.10
14755;DHT22;7469;50.906;6.952;2023-05-28T12:12:45;26.70;9.30
14755;DHT22;7469;50.906;6.952;2023-05-28T12:15:14;26.60;9.20
14755;DHT22;7469;50.906;6.952;2023-05-28T12:17:44;26.50;9.40
14755;DHT22;7469;50.906;6.952;2023-05-28T12:20:32;26.50;9.60
14755;DHT22;7469;50.906;6.952;2023-05-28T12:23:03;26.40;9.20
14755;DHT22;7469;50.906;6.952;2023-05-28T12:25:47;26.30;9.70
14755;DHT22;7469;50.906;6.952;2023-05-28T12:28:16;26.40;9.60
14755;DHT22;7469;50.906;6.952;2023-05-28T12:30:47;26.50;9.70
14755;DHT22;7469;50.906;6.952;2023-05-28T12:33:17;26.60;10.00
14755;DHT22;7469;50.906;6.952;2023-05-28T12:35:45;26.80;10.20
14755;DHT22;7469;50.906;6.952;2023-05-28T12:38:15;26.90;9.40
14755;DHT22;7469;50.906;6.952;2023-05-28T12:40:43;27.00;9.00
14755;DHT22;7469;50.906;6.952;2023-05-28T12:43:10;27.20;8.90
14755;DHT22;7469;50.906;6.952;2023-05-28T12:45:38;27.30;9.50
14755;DHT22;7469;50.906;6.952;2023-05-28T12:48:06;27.30;9.20
14755;DHT22;7469;50.906;6.952;2023-05-28T12:50:35;27.30;9.60
14755;DHT22;7469;50.906;6.952;2023-05-28T12:53:03;27.40;9.80
14755;DHT22;7469;50.906;6.952;2023-05-28T12:55:32;27.50;9.80
14755;DHT22;7469;50.906;6.952;2023-05-28T12:58:00;27.70;9.90
14755;DHT22;7469;50.906;6.952;2023-05-28T13:00:29;27.80;9.60
14755;DHT22;7469;50.906;6.952;2023-05-28T13:02:57;27.70;9.50
14755;DHT22;7469;50.906;6.952;2023-05-28T13:05:26;27.50;9.60
14755;DHT22;7469;50.906;6.952;2023-05-28T13:07:54;27.50;9.80
14755;DHT22;7469;50.906;6.952;2023-05-28T13:10:22;27.60;9.60
14755;DHT22;7469;50.906;6.952;2023-05-28T13:12:51;27.80;9.70
14755;DHT22;7469;50.906;6.952;2023-05-28T13:15:19;27.80;9.80
14755;DHT22;7469;50.906;6.952;2023-05-28T13:17:47;27.90;10.10
14755;DHT22;7469;50.906;6.952;2023-05-28T13:20:15;28.00;10.50
14755;DHT22;7469;50.906;6.952;2023-05-28T13:22:43;28.20;10.10
14755;DHT22;7469;50.906;6.952;2023-05-28T13:25:11;28.20;10.50
14755;DHT22;7469;50.906;6.952;2023-05-28T13:27:39;28.10;10.50
14755;DHT22;7469;50.906;6.952;2023-05-28T13:30:10;28.30;10.40
14755;DHT22;7469;50.906;6.952;2023-05-28T13:32:38;28.30;10.40
14755;DHT22;7469;50.906;6.952;2023-05-28T13:35:07;28.30;10.00
14755;DHT22;7469;50.906;6.952;2023-05-28T13:37:36;28.20;10.50
14755;DHT22;7469;50.906;6.952;2023-05-28T13:40:06;28.40;10.40
14755;DHT22;7469;50.906;6.952;2023-05-28T13:42:40;28.50;9.80
14755;DHT22;7469;50.906;6.952;2023-05-28T13:45:09;28.50;9.90
14755;DHT22;7469;50.906;6.952;2023-05-28T13:47:38;28.70;9.60
14755;DHT22;7469;50.906;6.952;2023-05-28T13:50:07;28.70;9.10
14755;DHT22;7469;50.906;6.952;2023-05-28T13:52:35;28.60;9.70
14755;DHT22;7469;50.906;6.952;2023-05-28T13:55:04;28.70;9.70
14755;DHT22;7469;50.906;6.952;2023-05-28T13:57:32;28.90;9.70
14755;DHT22;7469;50.906;6.952;2023-05-28T14:00:00;28.80;9.10
14755;DHT22;7469;50.906;6.952;2023-05-28T14:02:35;28.70;9.40
14755;DHT22;7469;50.906;6.952;2023-05-28T14:05:04;28.80;9.40
14755;DHT22;7469;50.906;6.952;2023-05-28T14:07:32;28.60;8.50
14755;DHT22;7469;50.906;6.952;2023-05-28T14:10:00;28.50;8.80
14755;DHT22;7469;50.906;6.952;2023-05-28T14:12:28;28.50;9.00
14755;DHT22;7469;50.906;6.952;2023-05-28T14:14:56;28.70;9.10
14755;DHT22;7469;50.906;6.952;2023-05-28T14:17:24;28.70;8.30
14755;DHT22;7469;50.906;6.952;2023-05-28T14:19:53;28.60;8.50
14755;DHT22;7469;50.906;6.952;2023-05-28T14:22:21;28.80;8.50
14755;DHT22;7469;50.906;6.952;2023-05-28T14:24:49;29.00;8.20
14755;DHT22;7469;50.906;6.952;2023-05-28T14:27:17;28.90;7.80
14755;DHT22;7469;50.906;6.952;2023-05-28T14:29:45;28.80;8.00
14755;DHT22;7469;50.906;6.952;2023-05-28T14:32:13;28.90;7.80
14755;DHT22;7469;50.906;6.952;2023-05-28T14:34:41;28.90;8.10
14755;DHT22;7469;50.906;6.952;2023-05-28T14:37:13;29.10;8.40
14755;DHT22;7469;50.906;6.952;2023-05-28T14:39:41;29.20;8.40
14755;DHT22;7469;50.906;6.952;2023-05-28T14:42:09;29.10;8.60
14755;DHT22;7469;50.906;6.952;2023-05-28T14:44:37;28.90;8.80
14755;DHT22;7469;50.906;6.952;2023-05-28T14:47:05;29.00;9.20
14755;DHT22;7469;50.906;6.952;2023-05-28T14:49:33;29.10;8.70
14755;DHT22;7469;50.906;6.952;2023-05-28T14:52:24;29.00;8.40
14755;DHT22;7469;50.906;6.952;2023-05-28T14:54:53;28.90;8.20
14755;DHT22;7469;50.906;6.952;2023-05-28T14:57:21;28.80;8.30
14755;DHT22;7469;50.906;6.952;2023-05-28T14:59:50;28.70;8.20
14755;DHT22;7469;50.906;6.952;2023-05-28T15:02:19;28.60;8.50
14755;DHT22;7469;50.906;6.952;2023-05-28T15:04:47;28.50;8.70
14755;DHT22;7469;50.906;6.952;2023-05-28T15:07:15;28.50;8.80
14755;DHT22;7469;50.906;6.952;2023-05-28T15:09:44;28.60;9.10
14755;DHT22;7469;50.906;6.952;2023-05-28T15:12:13;28.60;8.80
14755;DHT22;7469;50.906;6.952;2023-05-28T15:14:41;28.60;8.80
14755;DHT22;7469;50.906;6.952;2023-05-28T15:17:09;28.50;9.40
14755;DHT22;7469;50.906;6.952;2023-05-28T15:19:37;28.40;9.60
14755;DHT22;7469;50.906;6.952;2023-05-28T15:22:05;28.30;9.90
14755;DHT22;7469;50.906;6.952;2023-05-28T15:24:33;28.30;10.00
14755;DHT22;7469;50.906;6.952;2023-05-28T15:27:03;27.90;10.20
14755;DHT22;7469;50.906;6.952;2023-05-28T15:29:31;27.80;10.40
14755;DHT22;7469;50.906;6.952;2023-05-28T15:32:00;27.50;10.30
14755;DHT22;7469;50.906;6.952;2023-05-28T15:34:30;27.20;10.70
14755;DHT22;7469;50.906;6.952;2023-05-28T15:36:59;27.30;11.10
14755;DHT22;7469;50.906;6.952;2023-05-28T15:39:27;27.20;11.30
14755;DHT22;7469;50.906;6.952;2023-05-28T15:41:55;27.30;11.40
14755;DHT22;7469;50.906;6.952;2023-05-28T15:44:27;27.30;11.40
14755;DHT22;7469;50.906;6.952;2023-05-28T15:46:55;27.40;11.00
14755;DHT22;7469;50.906;6.952;2023-05-28T15:49:23;27.50;10.90
14755;DHT22;7469;50.906;6.952;2023-05-28T15:51:52;27.60;10.70
14755;DHT22;7469;50.906;6.952;2023-05-28T15:54:20;27.70;10.60
14755;DHT22;7469;50.906;6.952;2023-05-28T15:56:48;27.80;10.80
14755;DHT22;7469;50.906;6.952;2023-05-28T15:59:17;27.70;11.00
14755;DHT22;7469;50.906;6.952;2023-05-28T16:01:49;27.70;10.90
14755;DHT22;7469;50.906;6.952;2023-05-28T16:04:19;27.70;10.80